PWSweather.com
Personal Weather Stations
Station Observations
BC052CD
On, Kemptville, ON K0G 1J0

OnKemptville, ON K0G 1J0

Lat: 45.0173179, Lon: -75.6329355

Elevation: 295

Station Type: National Geographic 265NC

http://kerrentweather.ca

Latest ConditionsUpdated 4:15:05 PM EDT Monday, Sep 24, 2018
Currently Today's Max Today's Min Today's Average
Temperature 62.8°F17.1°C 64.0°F17.8°C 41.4°F5.2°C 51.3°F10.7°C
Dew Point 34.7°F1.5°C 38.0°F3.3°C 31.2°F-0.4°C 34.9°F1.6°C
Winds 8.7 mph W14.0 kmh W 8.7 mph -14.0 kmh - - 3.8 mph 6.1 kmh
Wind Gusts 13.4 mph21.6 kmh 21.8 mph35.1 kmh - -
Humidity 35% 69% 35% 55%
Pressure 30.49 in1032.5 mb 30.63 in1037.3 mb 30.49 in1032.5 mb -
Hour Temp Dew Point Humidity Winds Wind Gusts Pressure Precip Precip Rate Daily Precip Total
04:15 PM 62.8°F17.1°C 34.7°F1.5°C 35% 8.7 mph W14.0 kmh W 13.4 mph21.6 kmh 30.49 in1032.5 mb 0.00 in0.0 mm 0.00 in0.0 mm 0.00 in0.0 mm
04:00 PM 63.1°F17.3°C 35.8°F2.1°C 36% 4.8 mph W7.7 kmh W 14.3 mph23.0 kmh 30.51 in1033.2 mb 0.00 in0.0 mm 0.00 in0.0 mm 0.00 in0.0 mm
03:45 PM 63.5°F17.5°C 35.4°F1.9°C 35% 2.8 mph W4.5 kmh W 16.2 mph26.1 kmh 30.51 in1033.2 mb 0.00 in0.0 mm 0.00 in0.0 mm 0.00 in0.0 mm
03:30 PM 64.0°F17.8°C 36.6°F2.6°C 36% 6.7 mph W10.8 kmh W 14.3 mph23.0 kmh 30.52 in1033.5 mb 0.00 in0.0 mm 0.00 in0.0 mm 0.00 in0.0 mm
03:15 PM 64.0°F17.8°C 36.6°F2.6°C 36% 3.9 mph W6.3 kmh W 16.2 mph26.1 kmh 30.53 in1033.9 mb 0.00 in0.0 mm 0.00 in0.0 mm 0.00 in0.0 mm
03:00 PM 63.7°F17.6°C 35.5°F1.9°C 35% 3.9 mph W6.3 kmh W 16.2 mph26.1 kmh 30.52 in1033.5 mb 0.00 in0.0 mm 0.00 in0.0 mm 0.00 in0.0 mm
02:45 PM 63.7°F17.6°C 36.2°F2.3°C 36% 5.6 mph W9.0 kmh W 13.4 mph21.6 kmh 30.53 in1033.9 mb 0.00 in0.0 mm 0.00 in0.0 mm 0.00 in0.0 mm
02:30 PM 63.7°F17.6°C 37.6°F3.1°C 38% 4.8 mph W7.7 kmh W 15.1 mph24.3 kmh 30.54 in1034.2 mb 0.00 in0.0 mm 0.00 in0.0 mm 0.00 in0.0 mm
02:15 PM 63.0°F17.2°C 35.6°F2.0°C 36% 3.9 mph W6.3 kmh W 13.4 mph21.6 kmh 30.54 in1034.2 mb 0.00 in0.0 mm 0.00 in0.0 mm 0.00 in0.0 mm
02:00 PM 62.8°F17.1°C 36.8°F2.7°C 38% 5.6 mph W9.0 kmh W 18.2 mph29.3 kmh 30.55 in1034.5 mb 0.00 in0.0 mm 0.00 in0.0 mm 0.00 in0.0 mm
01:45 PM 62.6°F17.0°C 36.0°F2.2°C 37% 7.5 mph W12.1 kmh W 16.2 mph26.1 kmh 30.56 in1034.9 mb 0.00 in0.0 mm 0.00 in0.0 mm 0.00 in0.0 mm
01:30 PM 62.2°F16.8°C 36.3°F2.4°C 38% 5.6 mph W9.0 kmh W 15.1 mph24.3 kmh 30.57 in1035.2 mb 0.00 in0.0 mm 0.00 in0.0 mm 0.00 in0.0 mm
01:15 PM 61.7°F16.5°C 36.5°F2.5°C 39% 6.7 mph W10.8 kmh W 14.3 mph23.0 kmh 30.57 in1035.2 mb 0.00 in0.0 mm 0.00 in0.0 mm 0.00 in0.0 mm
01:00 PM 61.3°F16.3°C 36.8°F2.7°C 40% 2.8 mph W4.5 kmh W 14.3 mph23.0 kmh 30.58 in1035.6 mb 0.00 in0.0 mm 0.00 in0.0 mm 0.00 in0.0 mm
12:45 PM 60.8°F16.0°C 37.0°F2.8°C 41% 6.7 mph W10.8 kmh W 13.4 mph21.6 kmh 30.58 in1035.6 mb 0.00 in0.0 mm 0.00 in0.0 mm 0.00 in0.0 mm
12:30 PM 59.4°F15.2°C 35.7°F2.1°C 41% 6.7 mph W10.8 kmh W 17.1 mph27.5 kmh 30.58 in1035.6 mb 0.00 in0.0 mm 0.00 in0.0 mm 0.00 in0.0 mm
12:15 PM 59.0°F15.0°C 35.3°F1.8°C 41% 5.6 mph W9.0 kmh W 16.2 mph26.1 kmh 30.59 in1035.9 mb 0.00 in0.0 mm 0.00 in0.0 mm 0.00 in0.0 mm
12:00 PM 58.5°F14.7°C 36.6°F2.6°C 44% 4.8 mph W7.7 kmh W 16.2 mph26.1 kmh 30.59 in1035.9 mb 0.00 in0.0 mm 0.00 in0.0 mm 0.00 in0.0 mm
11:45 AM 57.4°F14.1°C 35.7°F2.1°C 44% 3.9 mph W6.3 kmh W 21.8 mph35.1 kmh 30.60 in1036.2 mb 0.00 in0.0 mm 0.00 in0.0 mm 0.00 in0.0 mm
11:30 AM 56.8°F13.8°C 36.3°F2.4°C 46% 4.8 mph W7.7 kmh W 16.2 mph26.1 kmh 30.60 in1036.2 mb 0.00 in0.0 mm 0.00 in0.0 mm 0.00 in0.0 mm
11:15 AM 55.0°F12.8°C 35.2°F1.8°C 47% 4.8 mph W7.7 kmh W 15.1 mph24.3 kmh 30.61 in1036.6 mb 0.00 in0.0 mm 0.00 in0.0 mm 0.00 in0.0 mm
11:00 AM 55.4°F13.0°C 36.6°F2.6°C 49% 2.8 mph W4.5 kmh W 14.3 mph23.0 kmh 30.62 in1036.9 mb 0.00 in0.0 mm 0.00 in0.0 mm 0.00 in0.0 mm
10:45 AM 53.8°F12.1°C 35.6°F2.0°C 50% 4.8 mph W7.7 kmh W 21.0 mph33.8 kmh 30.62 in1036.9 mb 0.00 in0.0 mm 0.00 in0.0 mm 0.00 in0.0 mm
10:30 AM 53.2°F11.8°C 35.6°F2.0°C 51% 3.9 mph W6.3 kmh W 17.1 mph27.5 kmh 30.62 in1036.9 mb 0.00 in0.0 mm 0.00 in0.0 mm 0.00 in0.0 mm
10:15 AM 52.3°F11.3°C 36.2°F2.3°C 54% 4.8 mph W7.7 kmh W 17.1 mph27.5 kmh 30.63 in1037.3 mb 0.00 in0.0 mm 0.00 in0.0 mm 0.00 in0.0 mm
10:00 AM 51.6°F10.9°C 36.0°F2.2°C 55% 5.6 mph W9.0 kmh W 18.2 mph29.3 kmh 30.63 in1037.3 mb 0.00 in0.0 mm 0.00 in0.0 mm 0.00 in0.0 mm
09:45 AM 50.9°F10.5°C 35.3°F1.8°C 55% 3.9 mph W6.3 kmh W 21.0 mph33.8 kmh 30.63 in1037.3 mb 0.00 in0.0 mm 0.00 in0.0 mm 0.00 in0.0 mm
09:30 AM 50.5°F10.3°C 36.3°F2.4°C 58% 5.6 mph W9.0 kmh W 18.2 mph29.3 kmh 30.63 in1037.3 mb 0.00 in0.0 mm 0.00 in0.0 mm 0.00 in0.0 mm
09:15 AM 49.5°F9.7°C 35.7°F2.1°C 59% 3.9 mph W6.3 kmh W 17.1 mph27.5 kmh 30.63 in1037.3 mb 0.00 in0.0 mm 0.00 in0.0 mm 0.00 in0.0 mm
09:00 AM 48.2°F9.0°C 35.8°F2.1°C 62% 4.8 mph W7.7 kmh W 16.2 mph26.1 kmh 30.63 in1037.3 mb 0.00 in0.0 mm 0.00 in0.0 mm 0.00 in0.0 mm
08:45 AM 46.9°F8.3°C 35.4°F1.9°C 64% 2.8 mph W4.5 kmh W 12.3 mph19.8 kmh 30.63 in1037.3 mb 0.00 in0.0 mm 0.00 in0.0 mm 0.00 in0.0 mm
08:30 AM 45.9°F7.7°C 35.2°F1.8°C 66% 3.9 mph W6.3 kmh W 13.4 mph21.6 kmh 30.62 in1036.9 mb 0.00 in0.0 mm 0.00 in0.0 mm 0.00 in0.0 mm
08:15 AM 44.4°F6.9°C 34.5°F1.4°C 68% 2.8 mph W4.5 kmh W 12.3 mph19.8 kmh 30.62 in1036.9 mb 0.00 in0.0 mm 0.00 in0.0 mm 0.00 in0.0 mm
08:00 AM 43.0°F6.1°C 33.5°F0.8°C 69% 2.8 mph W4.5 kmh W 8.7 mph14.0 kmh 30.61 in1036.6 mb 0.00 in0.0 mm 0.00 in0.0 mm 0.00 in0.0 mm
07:45 AM 41.9°F5.5°C 32.5°F0.3°C 69% 2.8 mph W4.5 kmh W 9.5 mph15.3 kmh 30.61 in1036.6 mb 0.00 in0.0 mm 0.00 in0.0 mm 0.00 in0.0 mm
07:30 AM 41.5°F5.3°C 32.1°F0.1°C 69% 2.0 mph W3.2 kmh W 9.5 mph15.3 kmh 30.60 in1036.2 mb 0.00 in0.0 mm 0.00 in0.0 mm 0.00 in0.0 mm
07:15 AM 41.5°F5.3°C 31.8°F-0.1°C 68% 2.0 mph W3.2 kmh W 8.7 mph14.0 kmh 30.60 in1036.2 mb 0.00 in0.0 mm 0.00 in0.0 mm 0.00 in0.0 mm
07:00 AM 41.4°F5.2°C 31.6°F-0.2°C 68% 2.0 mph W3.2 kmh W 7.5 mph12.1 kmh 30.60 in1036.2 mb 0.00 in0.0 mm 0.00 in0.0 mm 0.00 in0.0 mm
06:45 AM 41.5°F5.3°C 31.4°F-0.3°C 67% 0.8 mph W1.3 kmh W 8.7 mph14.0 kmh 30.59 in1035.9 mb 0.00 in0.0 mm 0.00 in0.0 mm 0.00 in0.0 mm
06:30 AM 41.7°F5.4°C 31.2°F-0.4°C 66% 2.0 mph W3.2 kmh W 6.7 mph10.8 kmh 30.59 in1035.9 mb 0.00 in0.0 mm 0.00 in0.0 mm 0.00 in0.0 mm
06:15 AM 41.9°F5.5°C 31.4°F-0.3°C 66% 0.8 mph W1.3 kmh W 6.7 mph10.8 kmh 30.58 in1035.6 mb 0.00 in0.0 mm 0.00 in0.0 mm 0.00 in0.0 mm
06:00 AM 42.3°F5.7°C 31.3°F-0.4°C 65% 2.8 mph W4.5 kmh W 5.6 mph9.0 kmh 30.58 in1035.6 mb 0.00 in0.0 mm 0.00 in0.0 mm 0.00 in0.0 mm
05:45 AM 42.6°F5.9°C 31.3°F-0.4°C 64% 2.0 mph W3.2 kmh W 5.6 mph9.0 kmh 30.58 in1035.6 mb 0.00 in0.0 mm 0.00 in0.0 mm 0.00 in0.0 mm
05:30 AM 43.2°F6.2°C 31.4°F-0.3°C 63% 2.0 mph W3.2 kmh W 4.8 mph7.7 kmh 30.57 in1035.2 mb 0.00 in0.0 mm 0.00 in0.0 mm 0.00 in0.0 mm
05:15 AM 43.9°F6.6°C 31.7°F-0.2°C 62% 0.8 mph W1.3 kmh W 5.6 mph9.0 kmh 30.57 in1035.2 mb 0.00 in0.0 mm 0.00 in0.0 mm 0.00 in0.0 mm
05:00 AM 44.8°F7.1°C 31.8°F-0.1°C 60% 0.8 mph W1.3 kmh W 5.6 mph9.0 kmh 30.55 in1034.5 mb 0.00 in0.0 mm 0.00 in0.0 mm 0.00 in0.0 mm
04:45 AM 45.5°F7.5°C 32.0°F0.0°C 59% 2.0 mph W3.2 kmh W 7.5 mph12.1 kmh 30.55 in1034.5 mb 0.00 in0.0 mm 0.00 in0.0 mm 0.00 in0.0 mm
04:30 AM 46.2°F7.9°C 32.7°F0.4°C 59% 3.9 mph W6.3 kmh W 9.5 mph15.3 kmh 30.55 in1034.5 mb 0.00 in0.0 mm 0.00 in0.0 mm 0.00 in0.0 mm
04:15 AM 46.6°F8.1°C 33.5°F0.8°C 60% 2.8 mph W4.5 kmh W 6.7 mph10.8 kmh 30.54 in1034.2 mb 0.00 in0.0 mm 0.00 in0.0 mm 0.00 in0.0 mm
04:00 AM 46.6°F8.1°C 33.5°F0.8°C 60% 2.8 mph W4.5 kmh W 8.7 mph14.0 kmh 30.54 in1034.2 mb 0.00 in0.0 mm 0.00 in0.0 mm 0.00 in0.0 mm
03:45 AM 46.4°F8.0°C 33.3°F0.7°C 60% 0.8 mph W1.3 kmh W 7.5 mph12.1 kmh 30.54 in1034.2 mb 0.00 in0.0 mm 0.00 in0.0 mm 0.00 in0.0 mm
03:30 AM 46.4°F8.0°C 33.3°F0.7°C 60% 2.8 mph W4.5 kmh W 6.7 mph10.8 kmh 30.54 in1034.2 mb 0.00 in0.0 mm 0.00 in0.0 mm 0.00 in0.0 mm
03:15 AM 46.2°F7.9°C 33.1°F0.6°C 60% 2.8 mph W4.5 kmh W 9.5 mph15.3 kmh 30.54 in1034.2 mb 0.00 in0.0 mm 0.00 in0.0 mm 0.00 in0.0 mm
03:00 AM 46.2°F7.9°C 32.7°F0.4°C 59% 2.0 mph W3.2 kmh W 9.5 mph15.3 kmh 30.54 in1034.2 mb 0.00 in0.0 mm 0.00 in0.0 mm 0.00 in0.0 mm
02:45 AM 46.6°F8.1°C 33.0°F0.6°C 59% 2.0 mph W3.2 kmh W 11.5 mph18.5 kmh 30.53 in1033.9 mb 0.00 in0.0 mm 0.00 in0.0 mm 0.00 in0.0 mm
02:30 AM 47.1°F8.4°C 34.0°F1.1°C 60% 2.8 mph W4.5 kmh W 13.4 mph21.6 kmh 30.53 in1033.9 mb 0.00 in0.0 mm 0.00 in0.0 mm 0.00 in0.0 mm
02:15 AM 47.3°F8.5°C 35.4°F1.9°C 63% 5.6 mph W9.0 kmh W 12.3 mph19.8 kmh 30.52 in1033.5 mb 0.00 in0.0 mm 0.00 in0.0 mm 0.00 in0.0 mm
02:00 AM 47.7°F8.7°C 36.5°F2.5°C 65% 2.8 mph W4.5 kmh W 12.3 mph19.8 kmh 30.52 in1033.5 mb 0.00 in0.0 mm 0.00 in0.0 mm 0.00 in0.0 mm
01:45 AM 47.7°F8.7°C 37.3°F2.9°C 67% 5.6 mph W9.0 kmh W 14.3 mph23.0 kmh 30.52 in1033.5 mb 0.00 in0.0 mm 0.00 in0.0 mm 0.00 in0.0 mm
01:30 AM 47.7°F8.7°C 38.0°F3.3°C 69% 2.8 mph W4.5 kmh W 9.5 mph15.3 kmh 30.52 in1033.5 mb 0.00 in0.0 mm 0.00 in0.0 mm 0.00 in0.0 mm
01:15 AM 47.7°F8.7°C 38.0°F3.3°C 69% 4.8 mph W7.7 kmh W 9.5 mph15.3 kmh 30.52 in1033.5 mb 0.00 in0.0 mm 0.00 in0.0 mm 0.00 in0.0 mm
01:00 AM 47.7°F8.7°C 37.6°F3.1°C 68% 4.8 mph W7.7 kmh W 11.5 mph18.5 kmh 30.52 in1033.5 mb 0.00 in0.0 mm 0.00 in0.0 mm 0.00 in0.0 mm
12:45 AM 47.5°F8.6°C 37.1°F2.8°C 67% 5.6 mph W9.0 kmh W 10.3 mph16.6 kmh 30.52 in1033.5 mb 0.00 in0.0 mm 0.00 in0.0 mm 0.00 in0.0 mm
12:30 AM 47.7°F8.7°C 36.9°F2.7°C 66% 3.9 mph W6.3 kmh W 9.5 mph15.3 kmh 30.52 in1033.5 mb 0.00 in0.0 mm 0.00 in0.0 mm 0.00 in0.0 mm
12:15 AM 47.7°F8.7°C 36.5°F2.5°C 65% 3.9 mph W6.3 kmh W 9.5 mph15.3 kmh 30.51 in1033.2 mb 0.00 in0.0 mm 0.00 in0.0 mm 0.00 in0.0 mm
12:00 AM 47.8°F8.8°C 36.7°F2.6°C 65% 4.8 mph W7.7 kmh W 12.3 mph19.8 kmh 30.51 in1033.2 mb 0.00 in0.0 mm 0.00 in0.0 mm 0.00 in0.0 mm